<?xml version="1.0" encoding="UTF-8" standalone="no" ?>
<gpx xmlns="http://www.topografix.com/GPX/1/1" xmlns:xsi="http://www.w3.org/2001/XMLSchema-instance" xsi:schemaLocation="http://www.topografix.com/GPX/1/1 http://www.topografix.com/GPX/1/1/gpx.xsd" version="1.1" creator="VisuGPX - https://www.visugpx.com">
  <metadata>
    <name>Tour de France 2019</name>
    <desc><![CDATA[4272km en 2 mois en tandem avec notre petit chien dans le panier avant]]></desc>
  </metadata>
  <trk>
    <name><![CDATA[Tracé 20191010-094237]]></name>
    <trkseg>
      <trkpt lat="44.56427" lon="5.91693">
        <ele>898.117</ele>
        <time>2019-10-10T07:45:22Z</time>
      </trkpt>
      <trkpt lat="44.56417" lon="5.9173">
        <ele>900.553</ele>
        <time>2019-10-10T07:46:25Z</time>
      </trkpt>
      <trkpt lat="44.56375" lon="5.91824">
        <ele>906.833</ele>
        <time>2019-10-10T07:52:31Z</time>
      </trkpt>
      <trkpt lat="44.56303" lon="5.91893">
        <ele>910.066</ele>
        <time>2019-10-10T07:53:01Z</time>
      </trkpt>
      <trkpt lat="44.56226" lon="5.91999">
        <ele>906.148</ele>
        <time>2019-10-10T07:53:31Z</time>
      </trkpt>
      <trkpt lat="44.56215" lon="5.92118">
        <ele>910.235</ele>
        <time>2019-10-10T07:54:01Z</time>
      </trkpt>
      <trkpt lat="44.56186" lon="5.92225">
        <ele>905.7</ele>
        <time>2019-10-10T07:54:34Z</time>
      </trkpt>
      <trkpt lat="44.56186" lon="5.92344">
        <ele>905.126</ele>
        <time>2019-10-10T07:55:04Z</time>
      </trkpt>
      <trkpt lat="44.56183" lon="5.92468">
        <ele>912.385</ele>
        <time>2019-10-10T07:55:34Z</time>
      </trkpt>
      <trkpt lat="44.56184" lon="5.92597">
        <ele>914.933</ele>
        <time>2019-10-10T07:56:04Z</time>
      </trkpt>
      <trkpt lat="44.56184" lon="5.92755">
        <ele>913.413</ele>
        <time>2019-10-10T07:56:37Z</time>
      </trkpt>
      <trkpt lat="44.56183" lon="5.92902">
        <ele>913.234</ele>
        <time>2019-10-10T07:57:07Z</time>
      </trkpt>
      <trkpt lat="44.56183" lon="5.93066">
        <ele>912.22</ele>
        <time>2019-10-10T07:57:37Z</time>
      </trkpt>
      <trkpt lat="44.56183" lon="5.93281">
        <ele>912.45</ele>
        <time>2019-10-10T07:58:07Z</time>
      </trkpt>
      <trkpt lat="44.56184" lon="5.93526">
        <ele>908.91</ele>
        <time>2019-10-10T07:58:40Z</time>
      </trkpt>
      <trkpt lat="44.56184" lon="5.93707">
        <ele>913.14</ele>
        <time>2019-10-10T07:59:10Z</time>
      </trkpt>
      <trkpt lat="44.56184" lon="5.93864">
        <ele>915.17</ele>
        <time>2019-10-10T07:59:40Z</time>
      </trkpt>
      <trkpt lat="44.56184" lon="5.94034">
        <ele>915.736</ele>
        <time>2019-10-10T08:00:13Z</time>
      </trkpt>
      <trkpt lat="44.56182" lon="5.94184">
        <ele>917.625</ele>
        <time>2019-10-10T08:00:43Z</time>
      </trkpt>
      <trkpt lat="44.56183" lon="5.94333">
        <ele>919.345</ele>
        <time>2019-10-10T08:01:13Z</time>
      </trkpt>
      <trkpt lat="44.56184" lon="5.9447">
        <ele>919.872</ele>
        <time>2019-10-10T08:01:43Z</time>
      </trkpt>
      <trkpt lat="44.56184" lon="5.94623">
        <ele>923.878</ele>
        <time>2019-10-10T08:02:16Z</time>
      </trkpt>
      <trkpt lat="44.56179" lon="5.94764">
        <ele>925.038</ele>
        <time>2019-10-10T08:02:46Z</time>
      </trkpt>
      <trkpt lat="44.56178" lon="5.94901">
        <ele>925.966</ele>
        <time>2019-10-10T08:03:16Z</time>
      </trkpt>
      <trkpt lat="44.56179" lon="5.95032">
        <ele>929.058</ele>
        <time>2019-10-10T08:03:46Z</time>
      </trkpt>
      <trkpt lat="44.56179" lon="5.95178">
        <ele>934.278</ele>
        <time>2019-10-10T08:04:19Z</time>
      </trkpt>
      <trkpt lat="44.56189" lon="5.95309">
        <ele>934.926</ele>
        <time>2019-10-10T08:04:49Z</time>
      </trkpt>
      <trkpt lat="44.56186" lon="5.95449">
        <ele>937.149</ele>
        <time>2019-10-10T08:05:19Z</time>
      </trkpt>
      <trkpt lat="44.56177" lon="5.9557">
        <ele>939.032</ele>
        <time>2019-10-10T08:05:49Z</time>
      </trkpt>
      <trkpt lat="44.56226" lon="5.95699">
        <ele>943.228</ele>
        <time>2019-10-10T08:06:22Z</time>
      </trkpt>
      <trkpt lat="44.56265" lon="5.95783">
        <ele>942.615</ele>
        <time>2019-10-10T08:06:52Z</time>
      </trkpt>
      <trkpt lat="44.56329" lon="5.95839">
        <ele>949.095</ele>
        <time>2019-10-10T08:07:22Z</time>
      </trkpt>
      <trkpt lat="44.56341" lon="5.95896">
        <ele>951.523</ele>
        <time>2019-10-10T08:17:22.001Z</time>
      </trkpt>
      <trkpt lat="44.56308" lon="5.95825">
        <ele>950.812</ele>
        <time>2019-10-10T08:17:55.001Z</time>
      </trkpt>
      <trkpt lat="44.56234" lon="5.95712">
        <ele>937.564</ele>
        <time>2019-10-10T08:18:25.001Z</time>
      </trkpt>
      <trkpt lat="44.562" lon="5.95626">
        <ele>935.242</ele>
        <time>2019-10-10T08:20:07.001Z</time>
      </trkpt>
      <trkpt lat="44.56127" lon="5.95607">
        <ele>941.106</ele>
        <time>2019-10-10T08:20:40.001Z</time>
      </trkpt>
      <trkpt lat="44.56005" lon="5.95692">
        <ele>941.89</ele>
        <time>2019-10-10T08:21:13.001Z</time>
      </trkpt>
      <trkpt lat="44.55964" lon="5.95707">
        <ele>940.937</ele>
        <time>2019-10-10T08:22:19.001Z</time>
      </trkpt>
      <trkpt lat="44.55972" lon="5.95687">
        <ele>937.083</ele>
        <time>2019-10-10T08:22:52.001Z</time>
      </trkpt>
      <trkpt lat="44.55837" lon="5.95748">
        <ele>933.998</ele>
        <time>2019-10-10T08:23:22.001Z</time>
      </trkpt>
      <trkpt lat="44.55698" lon="5.95818">
        <ele>933.373</ele>
        <time>2019-10-10T08:23:55.001Z</time>
      </trkpt>
      <trkpt lat="44.55562" lon="5.95886">
        <ele>931.495</ele>
        <time>2019-10-10T08:24:25.001Z</time>
      </trkpt>
      <trkpt lat="44.55444" lon="5.95979">
        <ele>932.914</ele>
        <time>2019-10-10T08:24:55.001Z</time>
      </trkpt>
      <trkpt lat="44.55367" lon="5.96143">
        <ele>937.914</ele>
        <time>2019-10-10T08:25:28.001Z</time>
      </trkpt>
      <trkpt lat="44.55309" lon="5.96272">
        <ele>940.706</ele>
        <time>2019-10-10T08:25:58.001Z</time>
      </trkpt>
      <trkpt lat="44.55242" lon="5.96396">
        <ele>940.197</ele>
        <time>2019-10-10T08:26:28.001Z</time>
      </trkpt>
      <trkpt lat="44.55182" lon="5.96525">
        <ele>940.297</ele>
        <time>2019-10-10T08:26:58.001Z</time>
      </trkpt>
      <trkpt lat="44.55151" lon="5.96689">
        <ele>942.988</ele>
        <time>2019-10-10T08:27:31.001Z</time>
      </trkpt>
      <trkpt lat="44.55134" lon="5.96841">
        <ele>940.463</ele>
        <time>2019-10-10T08:28:01.001Z</time>
      </trkpt>
      <trkpt lat="44.55115" lon="5.96994">
        <ele>942.286</ele>
        <time>2019-10-10T08:28:31.001Z</time>
      </trkpt>
      <trkpt lat="44.55082" lon="5.97139">
        <ele>948.851</ele>
        <time>2019-10-10T08:29:01.001Z</time>
      </trkpt>
      <trkpt lat="44.55039" lon="5.97308">
        <ele>947.916</ele>
        <time>2019-10-10T08:29:34.001Z</time>
      </trkpt>
      <trkpt lat="44.55002" lon="5.97482">
        <ele>947.628</ele>
        <time>2019-10-10T08:30:04.001Z</time>
      </trkpt>
      <trkpt lat="44.54963" lon="5.97653">
        <ele>946.67</ele>
        <time>2019-10-10T08:30:34.001Z</time>
      </trkpt>
      <trkpt lat="44.54925" lon="5.97818">
        <ele>945.803</ele>
        <time>2019-10-10T08:31:04.001Z</time>
      </trkpt>
      <trkpt lat="44.54892" lon="5.97963">
        <ele>946.034</ele>
        <time>2019-10-10T08:31:37.001Z</time>
      </trkpt>
      <trkpt lat="44.54861" lon="5.9809">
        <ele>950.425</ele>
        <time>2019-10-10T08:32:07.001Z</time>
      </trkpt>
      <trkpt lat="44.54813" lon="5.98201">
        <ele>952.984</ele>
        <time>2019-10-10T08:32:37.001Z</time>
      </trkpt>
      <trkpt lat="44.54759" lon="5.98294">
        <ele>955.026</ele>
        <time>2019-10-10T08:33:07.001Z</time>
      </trkpt>
      <trkpt lat="44.54702" lon="5.98395">
        <ele>957.119</ele>
        <time>2019-10-10T08:33:40.001Z</time>
      </trkpt>
      <trkpt lat="44.54662" lon="5.98494">
        <ele>962.081</ele>
        <time>2019-10-10T08:34:10.001Z</time>
      </trkpt>
      <trkpt lat="44.5462" lon="5.98607">
        <ele>962.591</ele>
        <time>2019-10-10T08:34:40.001Z</time>
      </trkpt>
      <trkpt lat="44.54583" lon="5.9871">
        <ele>964.895</ele>
        <time>2019-10-10T08:35:10.001Z</time>
      </trkpt>
      <trkpt lat="44.54544" lon="5.98817">
        <ele>967.723</ele>
        <time>2019-10-10T08:35:43.001Z</time>
      </trkpt>
      <trkpt lat="44.54524" lon="5.98924">
        <ele>970.852</ele>
        <time>2019-10-10T08:36:13.001Z</time>
      </trkpt>
      <trkpt lat="44.54529" lon="5.99038">
        <ele>971.069</ele>
        <time>2019-10-10T08:36:43.001Z</time>
      </trkpt>
      <trkpt lat="44.5455" lon="5.99145">
        <ele>975.084</ele>
        <time>2019-10-10T08:37:13.001Z</time>
      </trkpt>
      <trkpt lat="44.5457" lon="5.99261">
        <ele>980.755</ele>
        <time>2019-10-10T08:37:46.001Z</time>
      </trkpt>
      <trkpt lat="44.54589" lon="5.99365">
        <ele>983.078</ele>
        <time>2019-10-10T08:38:16Z</time>
      </trkpt>
      <trkpt lat="44.54609" lon="5.99469">
        <ele>985.051</ele>
        <time>2019-10-10T08:38:46.001Z</time>
      </trkpt>
      <trkpt lat="44.54629" lon="5.99581">
        <ele>985.032</ele>
        <time>2019-10-10T08:39:19.001Z</time>
      </trkpt>
      <trkpt lat="44.54644" lon="5.99687">
        <ele>987.47</ele>
        <time>2019-10-10T08:39:49.001Z</time>
      </trkpt>
      <trkpt lat="44.54647" lon="5.99807">
        <ele>988.998</ele>
        <time>2019-10-10T08:40:19.001Z</time>
      </trkpt>
      <trkpt lat="44.5463" lon="5.99948">
        <ele>991.537</ele>
        <time>2019-10-10T08:40:49.001Z</time>
      </trkpt>
      <trkpt lat="44.54578" lon="6.00124">
        <ele>988.854</ele>
        <time>2019-10-10T08:41:22.001Z</time>
      </trkpt>
      <trkpt lat="44.54532" lon="6.00277">
        <ele>990.652</ele>
        <time>2019-10-10T08:41:52.001Z</time>
      </trkpt>
      <trkpt lat="44.54481" lon="6.0045">
        <ele>988.348</ele>
        <time>2019-10-10T08:42:22.001Z</time>
      </trkpt>
      <trkpt lat="44.54399" lon="6.00712">
        <ele>979.477</ele>
        <time>2019-10-10T08:42:52.001Z</time>
      </trkpt>
      <trkpt lat="44.54281" lon="6.01015">
        <ele>973.427</ele>
        <time>2019-10-10T08:43:25.001Z</time>
      </trkpt>
      <trkpt lat="44.54188" lon="6.01241">
        <ele>971.695</ele>
        <time>2019-10-10T08:43:55.001Z</time>
      </trkpt>
      <trkpt lat="44.5411" lon="6.01435">
        <ele>977.755</ele>
        <time>2019-10-10T08:44:25.001Z</time>
      </trkpt>
      <trkpt lat="44.5404" lon="6.01575">
        <ele>976.952</ele>
        <time>2019-10-10T08:44:55.001Z</time>
      </trkpt>
      <trkpt lat="44.53975" lon="6.01737">
        <ele>974.862</ele>
        <time>2019-10-10T08:45:28.001Z</time>
      </trkpt>
      <trkpt lat="44.53967" lon="6.01913">
        <ele>971.914</ele>
        <time>2019-10-10T08:45:58.001Z</time>
      </trkpt>
      <trkpt lat="44.53961" lon="6.02073">
        <ele>972.774</ele>
        <time>2019-10-10T08:46:28.001Z</time>
      </trkpt>
      <trkpt lat="44.54004" lon="6.02229">
        <ele>980.386</ele>
        <time>2019-10-10T08:46:58.001Z</time>
      </trkpt>
      <trkpt lat="44.53987" lon="6.02425">
        <ele>976.82</ele>
        <time>2019-10-10T08:47:31.001Z</time>
      </trkpt>
      <trkpt lat="44.54038" lon="6.02564">
        <ele>977.09</ele>
        <time>2019-10-10T08:48:01.001Z</time>
      </trkpt>
      <trkpt lat="44.54101" lon="6.02583">
        <ele>978.311</ele>
        <time>2019-10-10T08:52:52.001Z</time>
      </trkpt>
      <trkpt lat="44.54205" lon="6.02528">
        <ele>977.391</ele>
        <time>2019-10-10T08:53:22.001Z</time>
      </trkpt>
      <trkpt lat="44.54321" lon="6.02439">
        <ele>975.201</ele>
        <time>2019-10-10T08:53:55.001Z</time>
      </trkpt>
      <trkpt lat="44.54443" lon="6.0239">
        <ele>976.314</ele>
        <time>2019-10-10T08:54:25.001Z</time>
      </trkpt>
      <trkpt lat="44.54574" lon="6.02389">
        <ele>977.988</ele>
        <time>2019-10-10T08:54:55.001Z</time>
      </trkpt>
      <trkpt lat="44.54699" lon="6.024">
        <ele>980.201</ele>
        <time>2019-10-10T08:55:25.001Z</time>
      </trkpt>
      <trkpt lat="44.54842" lon="6.02413">
        <ele>976.583</ele>
        <time>2019-10-10T08:55:58.001Z</time>
      </trkpt>
      <trkpt lat="44.54955" lon="6.02485">
        <ele>976.405</ele>
        <time>2019-10-10T08:56:29.001Z</time>
      </trkpt>
      <trkpt lat="44.54945" lon="6.0265">
        <ele>978.202</ele>
        <time>2019-10-10T08:56:59.001Z</time>
      </trkpt>
      <trkpt lat="44.54978" lon="6.02799">
        <ele>979.734</ele>
        <time>2019-10-10T08:57:29.001Z</time>
      </trkpt>
      <trkpt lat="44.55075" lon="6.02955">
        <ele>982.263</ele>
        <time>2019-10-10T08:58:02Z</time>
      </trkpt>
      <trkpt lat="44.55204" lon="6.03154">
        <ele>975.037</ele>
        <time>2019-10-10T08:58:32.001Z</time>
      </trkpt>
      <trkpt lat="44.55253" lon="6.0352">
        <ele>959.426</ele>
        <time>2019-10-10T08:59:02Z</time>
      </trkpt>
      <trkpt lat="44.54931" lon="6.03689">
        <ele>944.754</ele>
        <time>2019-10-10T08:59:35.001Z</time>
      </trkpt>
      <trkpt lat="44.54903" lon="6.03808">
        <ele>930.011</ele>
        <time>2019-10-10T09:00:05.001Z</time>
      </trkpt>
      <trkpt lat="44.55261" lon="6.0392">
        <ele>910.102</ele>
        <time>2019-10-10T09:00:35.001Z</time>
      </trkpt>
      <trkpt lat="44.55545" lon="6.04281">
        <ele>890.087</ele>
        <time>2019-10-10T09:01:05.001Z</time>
      </trkpt>
      <trkpt lat="44.55669" lon="6.04772">
        <ele>866.89</ele>
        <time>2019-10-10T09:01:38.001Z</time>
      </trkpt>
      <trkpt lat="44.55763" lon="6.0524">
        <ele>849.972</ele>
        <time>2019-10-10T09:02:08.001Z</time>
      </trkpt>
      <trkpt lat="44.55752" lon="6.05587">
        <ele>837.665</ele>
        <time>2019-10-10T09:02:38.001Z</time>
      </trkpt>
      <trkpt lat="44.55747" lon="6.0591">
        <ele>829.754</ele>
        <time>2019-10-10T09:03:08.001Z</time>
      </trkpt>
      <trkpt lat="44.5564" lon="6.06179">
        <ele>826.172</ele>
        <time>2019-10-10T09:03:41.001Z</time>
      </trkpt>
      <trkpt lat="44.5568" lon="6.06399">
        <ele>811.285</ele>
        <time>2019-10-10T09:04:11.001Z</time>
      </trkpt>
      <trkpt lat="44.55644" lon="6.06691">
        <ele>801.136</ele>
        <time>2019-10-10T09:04:41.001Z</time>
      </trkpt>
      <trkpt lat="44.55764" lon="6.06923">
        <ele>790.821</ele>
        <time>2019-10-10T09:05:11.001Z</time>
      </trkpt>
      <trkpt lat="44.5564" lon="6.07132">
        <ele>770.16</ele>
        <time>2019-10-10T09:05:44.001Z</time>
      </trkpt>
      <trkpt lat="44.55586" lon="6.07173">
        <ele>762.078</ele>
        <time>2019-10-10T09:08:14.001Z</time>
      </trkpt>
      <trkpt lat="44.55507" lon="6.07419">
        <ele>752.767</ele>
        <time>2019-10-10T09:08:44.001Z</time>
      </trkpt>
      <trkpt lat="44.55557" lon="6.07535">
        <ele>746.493</ele>
        <time>2019-10-10T09:09:14.001Z</time>
      </trkpt>
      <trkpt lat="44.55651" lon="6.07646">
        <ele>743.008</ele>
        <time>2019-10-10T09:09:47.001Z</time>
      </trkpt>
      <trkpt lat="44.55667" lon="6.07741">
        <ele>754.305</ele>
        <time>2019-10-10T09:10:23.001Z</time>
      </trkpt>
      <trkpt lat="44.55679" lon="6.07766">
        <ele>754.283</ele>
        <time>2019-10-10T09:11:44.001Z</time>
      </trkpt>
      <trkpt lat="44.55713" lon="6.07873">
        <ele>750.062</ele>
        <time>2019-10-10T09:13:29.001Z</time>
      </trkpt>
      <trkpt lat="44.55792" lon="6.07979">
        <ele>748.768</ele>
        <time>2019-10-10T09:14:02Z</time>
      </trkpt>
      <trkpt lat="44.55874" lon="6.08052">
        <ele>755.377</ele>
        <time>2019-10-10T09:14:32.001Z</time>
      </trkpt>
      <trkpt lat="44.55926" lon="6.08069">
        <ele>760.531</ele>
        <time>2019-10-10T09:16:50.001Z</time>
      </trkpt>
      <trkpt lat="44.56002" lon="6.08086">
        <ele>762.698</ele>
        <time>2019-10-10T09:17:20.001Z</time>
      </trkpt>
      <trkpt lat="44.56078" lon="6.08178">
        <ele>752.696</ele>
        <time>2019-10-10T09:17:53.001Z</time>
      </trkpt>
      <trkpt lat="44.5615" lon="6.08262">
        <ele>743.816</ele>
        <time>2019-10-10T09:18:23.001Z</time>
      </trkpt>
      <trkpt lat="44.56195" lon="6.08356">
        <ele>748.343</ele>
        <time>2019-10-10T09:19:20.001Z</time>
      </trkpt>
      <trkpt lat="44.56235" lon="6.08495">
        <ele>751.67</ele>
        <time>2019-10-10T09:19:53.001Z</time>
      </trkpt>
      <trkpt lat="44.56306" lon="6.0865">
        <ele>751.308</ele>
        <time>2019-10-10T09:20:23.001Z</time>
      </trkpt>
      <trkpt lat="44.56385" lon="6.08839">
        <ele>753.914</ele>
        <time>2019-10-10T09:20:53.001Z</time>
      </trkpt>
      <trkpt lat="44.56461" lon="6.09025">
        <ele>752.515</ele>
        <time>2019-10-10T09:21:23.001Z</time>
      </trkpt>
      <trkpt lat="44.56533" lon="6.09204">
        <ele>750.158</ele>
        <time>2019-10-10T09:21:56.001Z</time>
      </trkpt>
      <trkpt lat="44.56582" lon="6.09346">
        <ele>752.095</ele>
        <time>2019-10-10T09:22:26.001Z</time>
      </trkpt>
      <trkpt lat="44.56636" lon="6.09472">
        <ele>757.529</ele>
        <time>2019-10-10T09:22:56.001Z</time>
      </trkpt>
      <trkpt lat="44.56684" lon="6.09599">
        <ele>756.64</ele>
        <time>2019-10-10T09:23:26.001Z</time>
      </trkpt>
      <trkpt lat="44.56749" lon="6.09731">
        <ele>755.306</ele>
        <time>2019-10-10T09:23:59.001Z</time>
      </trkpt>
      <trkpt lat="44.56809" lon="6.09638">
        <ele>752.342</ele>
        <time>2019-10-10T09:24:29.001Z</time>
      </trkpt>
      <trkpt lat="44.56749" lon="6.09584">
        <ele>754.66</ele>
        <time>2019-10-10T09:27:47.001Z</time>
      </trkpt>
      <trkpt lat="44.56762" lon="6.09629">
        <ele>755.599</ele>
        <time>2019-10-10T09:42:23.001Z</time>
      </trkpt>
      <trkpt lat="44.56768" lon="6.09706">
        <ele>752.175</ele>
        <time>2019-10-10T09:42:59.001Z</time>
      </trkpt>
      <trkpt lat="44.56765" lon="6.09782">
        <ele>751.162</ele>
        <time>2019-10-10T09:43:29.001Z</time>
      </trkpt>
      <trkpt lat="44.56811" lon="6.09895">
        <ele>754.305</ele>
        <time>2019-10-10T09:43:59.001Z</time>
      </trkpt>
      <trkpt lat="44.56859" lon="6.10013">
        <ele>761.097</ele>
        <time>2019-10-10T09:44:29.001Z</time>
      </trkpt>
      <trkpt lat="44.56896" lon="6.10142">
        <ele>757.329</ele>
        <time>2019-10-10T09:45:02Z</time>
      </trkpt>
      <trkpt lat="44.5691" lon="6.10278">
        <ele>755.568</ele>
        <time>2019-10-10T09:45:32.001Z</time>
      </trkpt>
      <trkpt lat="44.5688" lon="6.1038">
        <ele>759.915</ele>
        <time>2019-10-10T09:46:02Z</time>
      </trkpt>
      <trkpt lat="44.56868" lon="6.10451">
        <ele>760.749</ele>
        <time>2019-10-10T09:46:38.001Z</time>
      </trkpt>
      <trkpt lat="44.56916" lon="6.10483">
        <ele>767.087</ele>
        <time>2019-10-10T10:20:59.001Z</time>
      </trkpt>
      <trkpt lat="44.56926" lon="6.10401">
        <ele>764.234</ele>
        <time>2019-10-10T10:22:53.001Z</time>
      </trkpt>
      <trkpt lat="44.56947" lon="6.104">
        <ele>757.963</ele>
        <time>2019-10-10T10:23:23.001Z</time>
      </trkpt>
      <trkpt lat="44.57038" lon="6.10504">
        <ele>759.934</ele>
        <time>2019-10-10T10:23:53.001Z</time>
      </trkpt>
      <trkpt lat="44.57096" lon="6.10608">
        <ele>763.523</ele>
        <time>2019-10-10T10:24:26.001Z</time>
      </trkpt>
      <trkpt lat="44.57151" lon="6.10694">
        <ele>762.984</ele>
        <time>2019-10-10T10:24:56.001Z</time>
      </trkpt>
      <trkpt lat="44.57215" lon="6.10779">
        <ele>765.257</ele>
        <time>2019-10-10T10:25:26.001Z</time>
      </trkpt>
      <trkpt lat="44.57311" lon="6.10886">
        <ele>766.515</ele>
        <time>2019-10-10T10:25:59.001Z</time>
      </trkpt>
      <trkpt lat="44.574" lon="6.10997">
        <ele>769.602</ele>
        <time>2019-10-10T10:26:29.001Z</time>
      </trkpt>
      <trkpt lat="44.57491" lon="6.1112">
        <ele>766.529</ele>
        <time>2019-10-10T10:26:59.001Z</time>
      </trkpt>
      <trkpt lat="44.57537" lon="6.11239">
        <ele>768.79</ele>
        <time>2019-10-10T10:27:29.001Z</time>
      </trkpt>
      <trkpt lat="44.5757" lon="6.11371">
        <ele>776.103</ele>
        <time>2019-10-10T10:28:02Z</time>
      </trkpt>
      <trkpt lat="44.57599" lon="6.11494">
        <ele>776.886</ele>
        <time>2019-10-10T10:28:32.001Z</time>
      </trkpt>
      <trkpt lat="44.57627" lon="6.11614">
        <ele>779.971</ele>
        <time>2019-10-10T10:29:02Z</time>
      </trkpt>
      <trkpt lat="44.5766" lon="6.11747">
        <ele>781.871</ele>
        <time>2019-10-10T10:29:32.001Z</time>
      </trkpt>
      <trkpt lat="44.57693" lon="6.11894">
        <ele>783.101</ele>
        <time>2019-10-10T10:30:05.001Z</time>
      </trkpt>
      <trkpt lat="44.57723" lon="6.12002">
        <ele>785.638</ele>
        <time>2019-10-10T10:30:35.001Z</time>
      </trkpt>
      <trkpt lat="44.57747" lon="6.12096">
        <ele>788.49</ele>
        <time>2019-10-10T10:31:05.001Z</time>
      </trkpt>
      <trkpt lat="44.57771" lon="6.12192">
        <ele>794.411</ele>
        <time>2019-10-10T10:31:35.001Z</time>
      </trkpt>
      <trkpt lat="44.57789" lon="6.12305">
        <ele>801.306</ele>
        <time>2019-10-10T10:32:08.001Z</time>
      </trkpt>
      <trkpt lat="44.57783" lon="6.12418">
        <ele>802.089</ele>
        <time>2019-10-10T10:32:38.001Z</time>
      </trkpt>
      <trkpt lat="44.5778" lon="6.12531">
        <ele>801.575</ele>
        <time>2019-10-10T10:33:08.001Z</time>
      </trkpt>
      <trkpt lat="44.57778" lon="6.1265">
        <ele>801.886</ele>
        <time>2019-10-10T10:33:38.001Z</time>
      </trkpt>
      <trkpt lat="44.57776" lon="6.12814">
        <ele>804.306</ele>
        <time>2019-10-10T10:34:11.001Z</time>
      </trkpt>
      <trkpt lat="44.57772" lon="6.12986">
        <ele>804.532</ele>
        <time>2019-10-10T10:34:41.001Z</time>
      </trkpt>
      <trkpt lat="44.57769" lon="6.13155">
        <ele>803.692</ele>
        <time>2019-10-10T10:35:11.001Z</time>
      </trkpt>
      <trkpt lat="44.57766" lon="6.13309">
        <ele>806.785</ele>
        <time>2019-10-10T10:35:41.001Z</time>
      </trkpt>
      <trkpt lat="44.57762" lon="6.13461">
        <ele>809.304</ele>
        <time>2019-10-10T10:36:14.001Z</time>
      </trkpt>
      <trkpt lat="44.57758" lon="6.13607">
        <ele>809.927</ele>
        <time>2019-10-10T10:36:44.001Z</time>
      </trkpt>
      <trkpt lat="44.57753" lon="6.13782">
        <ele>811.261</ele>
        <time>2019-10-10T10:37:14.001Z</time>
      </trkpt>
      <trkpt lat="44.57751" lon="6.13978">
        <ele>809.043</ele>
        <time>2019-10-10T10:37:44.001Z</time>
      </trkpt>
      <trkpt lat="44.57747" lon="6.14194">
        <ele>807.916</ele>
        <time>2019-10-10T10:38:17.001Z</time>
      </trkpt>
      <trkpt lat="44.57742" lon="6.14352">
        <ele>805.102</ele>
        <time>2019-10-10T10:40:02Z</time>
      </trkpt>
      <trkpt lat="44.57742" lon="6.14475">
        <ele>807.421</ele>
        <time>2019-10-10T10:40:32.001Z</time>
      </trkpt>
      <trkpt lat="44.57736" lon="6.14646">
        <ele>807.567</ele>
        <time>2019-10-10T10:41:02Z</time>
      </trkpt>
      <trkpt lat="44.57731" lon="6.14789">
        <ele>812.192</ele>
        <time>2019-10-10T10:41:35.001Z</time>
      </trkpt>
      <trkpt lat="44.57731" lon="6.14904">
        <ele>814.023</ele>
        <time>2019-10-10T10:42:05.001Z</time>
      </trkpt>
      <trkpt lat="44.57727" lon="6.15028">
        <ele>815.863</ele>
        <time>2019-10-10T10:42:35.001Z</time>
      </trkpt>
      <trkpt lat="44.57723" lon="6.15162">
        <ele>818.481</ele>
        <time>2019-10-10T10:43:08.001Z</time>
      </trkpt>
      <trkpt lat="44.5772" lon="6.15282">
        <ele>821.772</ele>
        <time>2019-10-10T10:43:38.001Z</time>
      </trkpt>
      <trkpt lat="44.57718" lon="6.15395">
        <ele>826.959</ele>
        <time>2019-10-10T10:44:08.001Z</time>
      </trkpt>
      <trkpt lat="44.57714" lon="6.15529">
        <ele>827.069</ele>
        <time>2019-10-10T10:44:38.001Z</time>
      </trkpt>
      <trkpt lat="44.5771" lon="6.15695">
        <ele>826.837</ele>
        <time>2019-10-10T10:45:11.001Z</time>
      </trkpt>
      <trkpt lat="44.57706" lon="6.15863">
        <ele>827.081</ele>
        <time>2019-10-10T10:45:41.001Z</time>
      </trkpt>
      <trkpt lat="44.57704" lon="6.16025">
        <ele>827.38</ele>
        <time>2019-10-10T10:46:11.001Z</time>
      </trkpt>
      <trkpt lat="44.577" lon="6.16161">
        <ele>831.558</ele>
        <time>2019-10-10T10:46:41.001Z</time>
      </trkpt>
      <trkpt lat="44.57672" lon="6.16356">
        <ele>830.321</ele>
        <time>2019-10-10T10:47:14.001Z</time>
      </trkpt>
      <trkpt lat="44.57611" lon="6.16537">
        <ele>830.497</ele>
        <time>2019-10-10T10:47:44.001Z</time>
      </trkpt>
      <trkpt lat="44.57558" lon="6.1668">
        <ele>830.734</ele>
        <time>2019-10-10T10:48:14.001Z</time>
      </trkpt>
      <trkpt lat="44.57508" lon="6.16808">
        <ele>830.992</ele>
        <time>2019-10-10T10:48:44.001Z</time>
      </trkpt>
      <trkpt lat="44.57458" lon="6.16948">
        <ele>835.081</ele>
        <time>2019-10-10T10:49:17.001Z</time>
      </trkpt>
      <trkpt lat="44.57411" lon="6.17074">
        <ele>835.814</ele>
        <time>2019-10-10T10:49:47.001Z</time>
      </trkpt>
      <trkpt lat="44.57364" lon="6.172">
        <ele>836.227</ele>
        <time>2019-10-10T10:50:17.001Z</time>
      </trkpt>
      <trkpt lat="44.57316" lon="6.17329">
        <ele>836.525</ele>
        <time>2019-10-10T10:50:47.001Z</time>
      </trkpt>
      <trkpt lat="44.5726" lon="6.17477">
        <ele>839.024</ele>
        <time>2019-10-10T10:51:20.001Z</time>
      </trkpt>
      <trkpt lat="44.57201" lon="6.17637">
        <ele>839.34</ele>
        <time>2019-10-10T10:51:50.001Z</time>
      </trkpt>
      <trkpt lat="44.5714" lon="6.17801">
        <ele>839.143</ele>
        <time>2019-10-10T10:52:20.001Z</time>
      </trkpt>
      <trkpt lat="44.57081" lon="6.17955">
        <ele>840.216</ele>
        <time>2019-10-10T10:52:50.001Z</time>
      </trkpt>
      <trkpt lat="44.57008" lon="6.18156">
        <ele>839.763</ele>
        <time>2019-10-10T10:53:23.001Z</time>
      </trkpt>
      <trkpt lat="44.56947" lon="6.18357">
        <ele>843.252</ele>
        <time>2019-10-10T10:53:53.001Z</time>
      </trkpt>
      <trkpt lat="44.56917" lon="6.18537">
        <ele>843.251</ele>
        <time>2019-10-10T10:54:23.001Z</time>
      </trkpt>
      <trkpt lat="44.56882" lon="6.18662">
        <ele>846.793</ele>
        <time>2019-10-10T10:54:53.001Z</time>
      </trkpt>
      <trkpt lat="44.56838" lon="6.18769">
        <ele>849.327</ele>
        <time>2019-10-10T10:55:26.001Z</time>
      </trkpt>
      <trkpt lat="44.56787" lon="6.18857">
        <ele>853.145</ele>
        <time>2019-10-10T10:55:56.001Z</time>
      </trkpt>
      <trkpt lat="44.56723" lon="6.1893">
        <ele>855.991</ele>
        <time>2019-10-10T10:56:26.001Z</time>
      </trkpt>
      <trkpt lat="44.56643" lon="6.19009">
        <ele>857.816</ele>
        <time>2019-10-10T10:56:59.001Z</time>
      </trkpt>
      <trkpt lat="44.56567" lon="6.19114">
        <ele>858.34</ele>
        <time>2019-10-10T10:57:29.001Z</time>
      </trkpt>
      <trkpt lat="44.56491" lon="6.19276">
        <ele>856.348</ele>
        <time>2019-10-10T10:57:59.001Z</time>
      </trkpt>
      <trkpt lat="44.56397" lon="6.19506">
        <ele>853.511</ele>
        <time>2019-10-10T10:58:29.001Z</time>
      </trkpt>
      <trkpt lat="44.56304" lon="6.19817">
        <ele>847.331</ele>
        <time>2019-10-10T10:59:02Z</time>
      </trkpt>
      <trkpt lat="44.56263" lon="6.20154">
        <ele>840.024</ele>
        <time>2019-10-10T10:59:32.001Z</time>
      </trkpt>
      <trkpt lat="44.56218" lon="6.20525">
        <ele>833.588</ele>
        <time>2019-10-10T11:00:02Z</time>
      </trkpt>
      <trkpt lat="44.56174" lon="6.20882">
        <ele>830.667</ele>
        <time>2019-10-10T11:00:32.001Z</time>
      </trkpt>
      <trkpt lat="44.56065" lon="6.21205">
        <ele>827.881</ele>
        <time>2019-10-10T11:01:05.001Z</time>
      </trkpt>
      <trkpt lat="44.55973" lon="6.2163">
        <ele>814.825</ele>
        <time>2019-10-10T11:01:35.001Z</time>
      </trkpt>
      <trkpt lat="44.55896" lon="6.22146">
        <ele>798.736</ele>
        <time>2019-10-10T11:02:05.001Z</time>
      </trkpt>
      <trkpt lat="44.55837" lon="6.22586">
        <ele>790.467</ele>
        <time>2019-10-10T11:02:35.001Z</time>
      </trkpt>
      <trkpt lat="44.55801" lon="6.22847">
        <ele>796.076</ele>
        <time>2019-10-10T11:03:08.001Z</time>
      </trkpt>
      <trkpt lat="44.55775" lon="6.23025">
        <ele>798.319</ele>
        <time>2019-10-10T11:03:38.001Z</time>
      </trkpt>
      <trkpt lat="44.55752" lon="6.23186">
        <ele>801.22</ele>
        <time>2019-10-10T11:04:08.001Z</time>
      </trkpt>
      <trkpt lat="44.55731" lon="6.23336">
        <ele>805.181</ele>
        <time>2019-10-10T11:04:38.001Z</time>
      </trkpt>
      <trkpt lat="44.55714" lon="6.2349">
        <ele>810.739</ele>
        <time>2019-10-10T11:05:11.001Z</time>
      </trkpt>
      <trkpt lat="44.55691" lon="6.2362">
        <ele>810.459</ele>
        <time>2019-10-10T11:05:41.001Z</time>
      </trkpt>
      <trkpt lat="44.55668" lon="6.23734">
        <ele>814.87</ele>
        <time>2019-10-10T11:06:11.001Z</time>
      </trkpt>
      <trkpt lat="44.55631" lon="6.23845">
        <ele>817.927</ele>
        <time>2019-10-10T11:06:41.001Z</time>
      </trkpt>
      <trkpt lat="44.55576" lon="6.23953">
        <ele>819.545</ele>
        <time>2019-10-10T11:07:14.001Z</time>
      </trkpt>
      <trkpt lat="44.55515" lon="6.24046">
        <ele>819.936</ele>
        <time>2019-10-10T11:07:44.001Z</time>
      </trkpt>
      <trkpt lat="44.55453" lon="6.24131">
        <ele>824.652</ele>
        <time>2019-10-10T11:08:14.001Z</time>
      </trkpt>
      <trkpt lat="44.55392" lon="6.24217">
        <ele>831.085</ele>
        <time>2019-10-10T11:08:44.001Z</time>
      </trkpt>
      <trkpt lat="44.55332" lon="6.24327">
        <ele>830.56</ele>
        <time>2019-10-10T11:09:17.001Z</time>
      </trkpt>
      <trkpt lat="44.5529" lon="6.24431">
        <ele>833.951</ele>
        <time>2019-10-10T11:09:47.001Z</time>
      </trkpt>
      <trkpt lat="44.55258" lon="6.24561">
        <ele>836.104</ele>
        <time>2019-10-10T11:10:17.001Z</time>
      </trkpt>
      <trkpt lat="44.55224" lon="6.24702">
        <ele>838.377</ele>
        <time>2019-10-10T11:10:50.001Z</time>
      </trkpt>
      <trkpt lat="44.55199" lon="6.24806">
        <ele>843.129</ele>
        <time>2019-10-10T11:11:20.001Z</time>
      </trkpt>
      <trkpt lat="44.55181" lon="6.24908">
        <ele>847.721</ele>
        <time>2019-10-10T11:11:50.001Z</time>
      </trkpt>
      <trkpt lat="44.55176" lon="6.25009">
        <ele>851.657</ele>
        <time>2019-10-10T11:12:20.001Z</time>
      </trkpt>
      <trkpt lat="44.55171" lon="6.25135">
        <ele>854.994</ele>
        <time>2019-10-10T11:12:53.001Z</time>
      </trkpt>
      <trkpt lat="44.55164" lon="6.25249">
        <ele>858.438</ele>
        <time>2019-10-10T11:13:23.001Z</time>
      </trkpt>
      <trkpt lat="44.55154" lon="6.25397">
        <ele>856.684</ele>
        <time>2019-10-10T11:13:53.001Z</time>
      </trkpt>
      <trkpt lat="44.55148" lon="6.25566">
        <ele>856.507</ele>
        <time>2019-10-10T11:14:23.001Z</time>
      </trkpt>
      <trkpt lat="44.55135" lon="6.25781">
        <ele>854.337</ele>
        <time>2019-10-10T11:14:56.001Z</time>
      </trkpt>
      <trkpt lat="44.55083" lon="6.25965">
        <ele>855.17</ele>
        <time>2019-10-10T11:15:26.001Z</time>
      </trkpt>
      <trkpt lat="44.55011" lon="6.26176">
        <ele>851.498</ele>
        <time>2019-10-10T11:15:56.001Z</time>
      </trkpt>
      <trkpt lat="44.54945" lon="6.26368">
        <ele>849.002</ele>
        <time>2019-10-10T11:16:26.001Z</time>
      </trkpt>
      <trkpt lat="44.54873" lon="6.26579">
        <ele>849.287</ele>
        <time>2019-10-10T11:16:59.001Z</time>
      </trkpt>
      <trkpt lat="44.5481" lon="6.26763">
        <ele>850.084</ele>
        <time>2019-10-10T11:17:29.001Z</time>
      </trkpt>
      <trkpt lat="44.54758" lon="6.26921">
        <ele>853.652</ele>
        <time>2019-10-10T11:17:59.001Z</time>
      </trkpt>
      <trkpt lat="44.54706" lon="6.27054">
        <ele>859.615</ele>
        <time>2019-10-10T11:18:29.001Z</time>
      </trkpt>
      <trkpt lat="44.54641" lon="6.27158">
        <ele>860.109</ele>
        <time>2019-10-10T11:19:02Z</time>
      </trkpt>
      <trkpt lat="44.54659" lon="6.27123">
        <ele>856.893</ele>
        <time>2019-10-10T11:19:35.001Z</time>
      </trkpt>
      <trkpt lat="44.54656" lon="6.27122">
        <ele>855.373</ele>
        <time>2019-10-10T11:23:20.001Z</time>
      </trkpt>
      <trkpt lat="44.54648" lon="6.27123">
        <ele>855.512</ele>
        <time>2019-10-10T11:55:56.001Z</time>
      </trkpt>
      <trkpt lat="44.54624" lon="6.27205">
        <ele>860.103</ele>
        <time>2019-10-10T11:56:32.001Z</time>
      </trkpt>
      <trkpt lat="44.5457" lon="6.27309">
        <ele>860.641</ele>
        <time>2019-10-10T11:57:02Z</time>
      </trkpt>
      <trkpt lat="44.54479" lon="6.27412">
        <ele>858.27</ele>
        <time>2019-10-10T11:57:32.001Z</time>
      </trkpt>
      <trkpt lat="44.54351" lon="6.2751">
        <ele>856.076</ele>
        <time>2019-10-10T11:58:02Z</time>
      </trkpt>
      <trkpt lat="44.5417" lon="6.27721">
        <ele>850.442</ele>
        <time>2019-10-10T11:58:35.001Z</time>
      </trkpt>
      <trkpt lat="44.54116" lon="6.2793">
        <ele>846.217</ele>
        <time>2019-10-10T11:59:05.001Z</time>
      </trkpt>
      <trkpt lat="44.5411" lon="6.28045">
        <ele>851.755</ele>
        <time>2019-10-10T11:59:35.001Z</time>
      </trkpt>
      <trkpt lat="44.54119" lon="6.28144">
        <ele>857.745</ele>
        <time>2019-10-10T12:00:05.001Z</time>
      </trkpt>
      <trkpt lat="44.5413" lon="6.28247">
        <ele>861.076</ele>
        <time>2019-10-10T12:00:38.001Z</time>
      </trkpt>
      <trkpt lat="44.54136" lon="6.28344">
        <ele>864.409</ele>
        <time>2019-10-10T12:01:08.001Z</time>
      </trkpt>
      <trkpt lat="44.54126" lon="6.28447">
        <ele>867.629</ele>
        <time>2019-10-10T12:01:38.001Z</time>
      </trkpt>
      <trkpt lat="44.54103" lon="6.28562">
        <ele>872.082</ele>
        <time>2019-10-10T12:02:11.001Z</time>
      </trkpt>
      <trkpt lat="44.54064" lon="6.28666">
        <ele>875.09</ele>
        <time>2019-10-10T12:02:41.001Z</time>
      </trkpt>
      <trkpt lat="44.54011" lon="6.28768">
        <ele>875.971</ele>
        <time>2019-10-10T12:03:11.001Z</time>
      </trkpt>
      <trkpt lat="44.53956" lon="6.2887">
        <ele>879.216</ele>
        <time>2019-10-10T12:03:41.001Z</time>
      </trkpt>
      <trkpt lat="44.53909" lon="6.28956">
        <ele>879.313</ele>
        <time>2019-10-10T12:05:50.001Z</time>
      </trkpt>
      <trkpt lat="44.53862" lon="6.29112">
        <ele>877.702</ele>
        <time>2019-10-10T12:06:23.001Z</time>
      </trkpt>
      <trkpt lat="44.53833" lon="6.29405">
        <ele>872.084</ele>
        <time>2019-10-10T12:06:53.001Z</time>
      </trkpt>
      <trkpt lat="44.53756" lon="6.29741">
        <ele>864.356</ele>
        <time>2019-10-10T12:07:23.001Z</time>
      </trkpt>
      <trkpt lat="44.53598" lon="6.29936">
        <ele>862.696</ele>
        <time>2019-10-10T12:07:56.001Z</time>
      </trkpt>
      <trkpt lat="44.53516" lon="6.30063">
        <ele>865.752</ele>
        <time>2019-10-10T12:08:26.001Z</time>
      </trkpt>
      <trkpt lat="44.5346" lon="6.30215">
        <ele>866.907</ele>
        <time>2019-10-10T12:08:56.001Z</time>
      </trkpt>
      <trkpt lat="44.53407" lon="6.30376">
        <ele>869.601</ele>
        <time>2019-10-10T12:09:26.001Z</time>
      </trkpt>
      <trkpt lat="44.53338" lon="6.30579">
        <ele>865.646</ele>
        <time>2019-10-10T12:09:59.001Z</time>
      </trkpt>
      <trkpt lat="44.53235" lon="6.30883">
        <ele>861.763</ele>
        <time>2019-10-10T12:10:29.001Z</time>
      </trkpt>
      <trkpt lat="44.53142" lon="6.31162">
        <ele>856.624</ele>
        <time>2019-10-10T12:10:59.001Z</time>
      </trkpt>
      <trkpt lat="44.53087" lon="6.31323">
        <ele>857.065</ele>
        <time>2019-10-10T12:11:29.001Z</time>
      </trkpt>
      <trkpt lat="44.53018" lon="6.31526">
        <ele>856.943</ele>
        <time>2019-10-10T12:12:02Z</time>
      </trkpt>
      <trkpt lat="44.52933" lon="6.31784">
        <ele>851.076</ele>
        <time>2019-10-10T12:12:32.001Z</time>
      </trkpt>
      <trkpt lat="44.53024" lon="6.32205">
        <ele>837.747</ele>
        <time>2019-10-10T12:13:02Z</time>
      </trkpt>
      <trkpt lat="44.5316" lon="6.32721">
        <ele>814.483</ele>
        <time>2019-10-10T12:13:32.001Z</time>
      </trkpt>
      <trkpt lat="44.53063" lon="6.33084">
        <ele>808.093</ele>
        <time>2019-10-10T12:14:05.001Z</time>
      </trkpt>
      <trkpt lat="44.52979" lon="6.33249">
        <ele>810.228</ele>
        <time>2019-10-10T12:14:35.001Z</time>
      </trkpt>
      <trkpt lat="44.52957" lon="6.33273">
        <ele>813.153</ele>
        <time>2019-10-10T12:18:41.001Z</time>
      </trkpt>
      <trkpt lat="44.52951" lon="6.33361">
        <ele>813.271</ele>
        <time>2019-10-10T12:19:20.001Z</time>
      </trkpt>
      <trkpt lat="44.52847" lon="6.33464">
        <ele>813.896</ele>
        <time>2019-10-10T12:19:53.001Z</time>
      </trkpt>
      <trkpt lat="44.52744" lon="6.33556">
        <ele>814.087</ele>
        <time>2019-10-10T12:20:23.001Z</time>
      </trkpt>
      <trkpt lat="44.52667" lon="6.33661">
        <ele>816.138</ele>
        <time>2019-10-10T12:20:53.001Z</time>
      </trkpt>
      <trkpt lat="44.52597" lon="6.33805">
        <ele>817.858</ele>
        <time>2019-10-10T12:21:26.001Z</time>
      </trkpt>
      <trkpt lat="44.52535" lon="6.33936">
        <ele>819.046</ele>
        <time>2019-10-10T12:21:56.001Z</time>
      </trkpt>
      <trkpt lat="44.52473" lon="6.34062">
        <ele>822.775</ele>
        <time>2019-10-10T12:22:26.001Z</time>
      </trkpt>
      <trkpt lat="44.52414" lon="6.34193">
        <ele>822.543</ele>
        <time>2019-10-10T12:22:56.001Z</time>
      </trkpt>
      <trkpt lat="44.52366" lon="6.34369">
        <ele>812.467</ele>
        <time>2019-10-10T12:23:29.001Z</time>
      </trkpt>
      <trkpt lat="44.52372" lon="6.34567">
        <ele>807.81</ele>
        <time>2019-10-10T12:23:59.001Z</time>
      </trkpt>
      <trkpt lat="44.52438" lon="6.34789">
        <ele>813.735</ele>
        <time>2019-10-10T12:24:29.001Z</time>
      </trkpt>
      <trkpt lat="44.52516" lon="6.3506">
        <ele>813.702</ele>
        <time>2019-10-10T12:24:59.001Z</time>
      </trkpt>
      <trkpt lat="44.52577" lon="6.35416">
        <ele>803.831</ele>
        <time>2019-10-10T12:25:32.001Z</time>
      </trkpt>
      <trkpt lat="44.5263" lon="6.35641">
        <ele>799.728</ele>
        <time>2019-10-10T12:26:02Z</time>
      </trkpt>
      <trkpt lat="44.52769" lon="6.35858">
        <ele>798.767</ele>
        <time>2019-10-10T12:26:32.001Z</time>
      </trkpt>
      <trkpt lat="44.52922" lon="6.3611">
        <ele>794.526</ele>
        <time>2019-10-10T12:27:02Z</time>
      </trkpt>
      <trkpt lat="44.52961" lon="6.36418">
        <ele>790.346</ele>
        <time>2019-10-10T12:27:35.001Z</time>
      </trkpt>
      <trkpt lat="44.52997" lon="6.36688">
        <ele>786.998</ele>
        <time>2019-10-10T12:28:05.001Z</time>
      </trkpt>
      <trkpt lat="44.53031" lon="6.36922">
        <ele>783.71</ele>
        <time>2019-10-10T12:28:35.001Z</time>
      </trkpt>
      <trkpt lat="44.53058" lon="6.37124">
        <ele>784.561</ele>
        <time>2019-10-10T12:29:05.001Z</time>
      </trkpt>
      <trkpt lat="44.53092" lon="6.37306">
        <ele>791.557</ele>
        <time>2019-10-10T12:29:38.001Z</time>
      </trkpt>
      <trkpt lat="44.53165" lon="6.37442">
        <ele>793.898</ele>
        <time>2019-10-10T12:30:08.001Z</time>
      </trkpt>
      <trkpt lat="44.53277" lon="6.37556">
        <ele>793.118</ele>
        <time>2019-10-10T12:30:38.001Z</time>
      </trkpt>
      <trkpt lat="44.53419" lon="6.37695">
        <ele>789.171</ele>
        <time>2019-10-10T12:31:08.001Z</time>
      </trkpt>
      <trkpt lat="44.53573" lon="6.37994">
        <ele>781.108</ele>
        <time>2019-10-10T12:31:41.001Z</time>
      </trkpt>
      <trkpt lat="44.53561" lon="6.38241">
        <ele>782.387</ele>
        <time>2019-10-10T12:32:11.001Z</time>
      </trkpt>
      <trkpt lat="44.5355" lon="6.38464">
        <ele>780.655</ele>
        <time>2019-10-10T12:32:41.001Z</time>
      </trkpt>
      <trkpt lat="44.53548" lon="6.38678">
        <ele>782.925</ele>
        <time>2019-10-10T12:33:11.001Z</time>
      </trkpt>
      <trkpt lat="44.53548" lon="6.38916">
        <ele>783.947</ele>
        <time>2019-10-10T12:33:44.001Z</time>
      </trkpt>
      <trkpt lat="44.53518" lon="6.39128">
        <ele>782.083</ele>
        <time>2019-10-10T12:34:14.001Z</time>
      </trkpt>
      <trkpt lat="44.53407" lon="6.3929">
        <ele>779.921</ele>
        <time>2019-10-10T12:34:44.001Z</time>
      </trkpt>
      <trkpt lat="44.53272" lon="6.39427">
        <ele>781.871</ele>
        <time>2019-10-10T12:35:17.001Z</time>
      </trkpt>
      <trkpt lat="44.53153" lon="6.39544">
        <ele>784.538</ele>
        <time>2019-10-10T12:35:47.001Z</time>
      </trkpt>
      <trkpt lat="44.5304" lon="6.3966">
        <ele>782.599</ele>
        <time>2019-10-10T12:36:17.001Z</time>
      </trkpt>
      <trkpt lat="44.52929" lon="6.39774">
        <ele>782.484</ele>
        <time>2019-10-10T12:36:47.001Z</time>
      </trkpt>
      <trkpt lat="44.52807" lon="6.39896">
        <ele>782.485</ele>
        <time>2019-10-10T12:37:20.001Z</time>
      </trkpt>
      <trkpt lat="44.52706" lon="6.4">
        <ele>783.006</ele>
        <time>2019-10-10T12:37:50.001Z</time>
      </trkpt>
      <trkpt lat="44.52648" lon="6.40093">
        <ele>785.864</ele>
        <time>2019-10-10T12:38:20.001Z</time>
      </trkpt>
      <trkpt lat="44.52591" lon="6.40117">
        <ele>792.28</ele>
        <time>2019-10-10T12:38:50.001Z</time>
      </trkpt>
      <trkpt lat="44.52499" lon="6.40066">
        <ele>795.703</ele>
        <time>2019-10-10T12:39:23.001Z</time>
      </trkpt>
      <trkpt lat="44.5243" lon="6.40051">
        <ele>798.703</ele>
        <time>2019-10-10T12:39:53.001Z</time>
      </trkpt>
      <trkpt lat="44.52396" lon="6.4011">
        <ele>804.592</ele>
        <time>2019-10-10T12:40:26.001Z</time>
      </trkpt>
      <trkpt lat="44.52388" lon="6.40125">
        <ele>802.06</ele>
        <time>2019-10-10T12:45:29.001Z</time>
      </trkpt>
      <trkpt lat="44.52363" lon="6.40121">
        <ele>801.809</ele>
        <time>2019-10-10T12:48:44.001Z</time>
      </trkpt>
      <trkpt lat="44.52356" lon="6.40127">
        <ele>802.626</ele>
        <time>2019-10-10T12:50:53.001Z</time>
      </trkpt>
    </trkseg>
  </trk>
</gpx>